ORMM METAR and TAF | Updated Today

ORMM METAR

Basrah International Airport

Observation time: 59 min. ago

ORMM 010700Z 28017KT CAVOK 36/06 Q1009 NOSIG

Need help? Read our tutorial on how to read METARs or read the parsed version below.

Basrah International Airport (ORMM) METAR

  • Weather conditions on Sat, 01 Oct 2022 07:00:00 +0000 (59 min. ago):
  • Present conditions: Dry
  • Clouds: Clear skies
  • Visibility: Greater than 10 km
  • Wind: 280 degrees at 17 knots
  • Temperature: 36 celsius
  • Dew point: 6 celsius
  • Pressure: 1009 millibars
  • Remarks: None


Useful to know...

ORMM TAF

Basrah International Airport

TAF ORMM 302200Z 0100/0124 29010KT CAVOK TEMPO 0106/0112 G20KT 8000 NSC
Observation time: 720:00 hr. ago
Need help? Read our tutorial on how to read TAFs or read the parsed version below.

Parsed version of TAF for Basrah International Airport (ORMM)

  • From 01 October at 00:00 UTC, to day 01 of the month at 24:00 UTC
  • Visibility: Greater than 10 km
  • Wind: 290 degrees at 10
  • Expected to arise temporarily, from 01 October at 06:00 UTC, to day 01 of the month at 12:00 UTC
  • Clouds: No significant clouds are observed
  • Visibility: 8000 meters